Time;durP1;ratioP1;P1;durP2;ratioP2;P2;SDS_P1;SDS_P2;PMS_P1;PMS_P2;Temp;Humidity;BMP_temperature;BMP_pressure;BME280_temperature;BME280_humidity;BME280_pressure;Samples;Min_cycle;Max_cycle;Signal;HPM_P1;HPM_P2
2022/11/23 00:00:26;;;;;;;122.47;46.60;;;;;;;1.80;100.00;99725.06;4993027;28;20042;-78
2022/11/23 00:02:55;;;;;;;110.87;46.03;;;;;;;1.90;100.00;99719.81;5015593;28;20026;-77
2022/11/23 00:05:21;;;;;;;107.23;42.70;;;;;;;2.01;100.00;99726.88;4987689;28;20394;-77
2022/11/23 00:07:47;;;;;;;118.27;46.57;;;;;;;2.02;100.00;99723.22;4979432;28;20038;-76
2022/11/23 00:10:12;;;;;;;112.13;45.57;;;;;;;1.92;100.00;99730.34;4982497;28;20030;-76
2022/11/23 00:12:38;;;;;;;105.53;42.87;;;;;;;1.86;100.00;99729.88;4978126;28;20089;-77
2022/11/23 00:15:04;;;;;;;107.13;44.10;;;;;;;1.97;100.00;99730.81;4978500;28;20041;-77
2022/11/23 00:17:30;;;;;;;104.77;45.53;;;;;;;1.84;100.00;99731.84;4995356;28;20030;-77
2022/11/23 00:19:55;;;;;;;98.83;42.67;;;;;;;1.87;100.00;99731.56;4995334;28;20056;-77
2022/11/23 00:22:21;;;;;;;103.10;41.23;;;;;;;1.99;100.00;99729.69;5002472;28;20045;-77
2022/11/23 00:24:46;;;;;;;100.13;41.13;;;;;;;2.14;100.00;99722.16;4996470;28;20089;-77
2022/11/23 00:27:11;;;;;;;119.37;42.63;;;;;;;2.07;100.00;99715.69;5024760;28;20435;-77
2022/11/23 00:29:36;;;;;;;106.00;45.50;;;;;;;2.07;100.00;99726.34;5002814;28;20137;-77
2022/11/23 00:32:02;;;;;;;98.40;41.40;;;;;;;2.00;100.00;99711.84;4995227;28;20026;-77
2022/11/23 00:34:27;;;;;;;97.10;41.80;;;;;;;2.00;100.00;99725.19;4994402;28;20040;-77
2022/11/23 00:36:53;;;;;;;103.87;42.87;;;;;;;2.08;100.00;99717.34;5005837;28;20051;-77
2022/11/23 00:39:18;;;;;;;106.23;43.13;;;;;;;2.02;100.00;99724.09;5017141;28;20048;-77
2022/11/23 00:41:43;;;;;;;102.23;41.80;;;;;;;2.22;100.00;99719.72;4994034;28;20139;-77
2022/11/23 00:44:09;;;;;;;92.73;40.43;;;;;;;2.08;100.00;99722.69;5016310;28;20026;-77
2022/11/23 00:46:34;;;;;;;88.53;40.00;;;;;;;2.11;100.00;99722.44;4998386;28;20032;-78
2022/11/23 00:49:00;;;;;;;94.67;38.57;;;;;;;2.32;100.00;99715.25;4990541;28;20451;-77
2022/11/23 00:51:31;;;;;;;100.60;40.37;;;;;;;2.20;100.00;99721.66;4997915;28;20514;-77
2022/11/23 00:53:58;;;;;;;85.50;39.70;;;;;;;2.16;100.00;99725.56;5000971;28;20061;-77
2022/11/23 00:56:24;;;;;;;88.07;38.80;;;;;;;2.19;100.00;99725.28;4996604;28;20036;-77
2022/11/23 00:58:51;;;;;;;93.03;39.43;;;;;;;2.27;100.00;99722.78;4996853;28;20076;-77
2022/11/23 01:01:19;;;;;;;88.07;39.47;;;;;;;2.21;100.00;99726.00;5004113;28;20029;-77
2022/11/23 01:03:47;;;;;;;95.60;40.45;;;;;;;2.14;100.00;99722.16;5011681;28;20034;-77
2022/11/23 01:06:16;;;;;;;91.33;37.97;;;;;;;2.23;100.00;99726.72;5006585;28;20026;-77
2022/11/23 01:08:42;;;;;;;84.57;38.75;;;;;;;2.24;100.00;99717.75;4994730;28;20029;-77
2022/11/23 01:11:09;;;;;;;90.83;38.97;;;;;;;2.28;100.00;99729.84;4994670;28;20022;-77
2022/11/23 01:13:36;;;;;;;81.87;36.13;;;;;;;2.28;100.00;99724.50;4988406;28;20099;-77
2022/11/23 01:16:02;;;;;;;78.20;33.92;;;;;;;2.48;100.00;99724.56;4999205;28;20029;-77
2022/11/23 01:18:28;;;;;;;83.93;37.73;;;;;;;2.45;100.00;99720.34;4996318;28;20079;-76
2022/11/23 01:20:53;;;;;;;82.00;36.43;;;;;;;2.45;100.00;99715.84;5003625;28;20033;-76
2022/11/23 01:23:19;;;;;;;78.13;34.33;;;;;;;2.28;100.00;99719.19;4997045;28;20029;-76
2022/11/23 01:25:44;;;;;;;87.30;35.13;;;;;;;2.31;100.00;99718.06;4994871;28;20036;-76
2022/11/23 01:28:09;;;;;;;79.82;36.38;;;;;;;2.28;100.00;99728.97;4999798;28;20021;-76
2022/11/23 01:30:35;;;;;;;80.77;36.47;;;;;;;2.36;100.00;99727.34;4995287;28;20025;-76
2022/11/23 01:33:02;;;;;;;80.20;35.87;;;;;;;2.44;100.00;99719.50;5001433;28;20032;-76
2022/11/23 01:35:28;;;;;;;82.70;36.40;;;;;;;2.35;100.00;99717.66;4992040;28;20062;-76
2022/11/23 01:37:53;;;;;;;75.20;34.37;;;;;;;2.36;100.00;99711.34;5007121;28;20076;-76
2022/11/23 01:40:19;;;;;;;75.23;33.20;;;;;;;2.39;100.00;99716.38;4993501;28;20033;-76
2022/11/23 01:42:58;;;;;;;91.20;37.67;;;;;;;2.31;100.00;99713.56;5010352;28;20021;-76
2022/11/23 01:45:38;;;;;;;79.20;36.27;;;;;;;2.24;100.00;99717.75;4995130;28;20129;-76
2022/11/23 01:48:10;;;;;;;76.07;34.73;;;;;;;2.38;100.00;99725.38;4994133;28;20040;-78
2022/11/23 01:50:37;;;;;;;79.03;35.27;;;;;;;2.57;100.00;99729.13;5015027;28;20049;-76
2022/11/23 01:53:03;;;;;;;80.27;36.17;;;;;;;2.61;100.00;99722.53;4999310;28;20112;-76
2022/11/23 01:55:28;;;;;;;80.83;36.60;;;;;;;2.48;100.00;99719.22;4999163;28;20163;-76
2022/11/23 01:57:54;;;;;;;72.10;32.90;;;;;;;2.45;100.00;99725.69;4991475;28;20043;-76
2022/11/23 02:00:19;;;;;;;74.00;33.37;;;;;;;2.57;100.00;99723.78;4994713;28;20028;-76
2022/11/23 02:02:52;;;;;;;71.07;31.40;;;;;;;2.58;100.00;99725.47;4998060;28;20021;-76
2022/11/23 02:05:21;;;;;;;75.38;32.75;;;;;;;2.55;100.00;99725.75;4994895;28;20040;-75
2022/11/23 02:07:48;;;;;;;76.35;31.95;;;;;;;2.67;100.00;99724.63;4995196;28;20022;-76
2022/11/23 02:10:15;;;;;;;74.93;33.15;;;;;;;2.72;100.00;99725.09;4999327;28;20105;-76
2022/11/23 02:12:40;;;;;;;67.80;30.20;;;;;;;2.77;100.00;99738.88;4994159;28;20013;-76
2022/11/23 02:15:06;;;;;;;72.85;32.92;;;;;;;2.78;100.00;99727.22;4995110;28;20100;-76
2022/11/23 02:17:34;;;;;;;69.20;30.80;;;;;;;2.87;100.00;99718.38;4995124;28;20028;-76
2022/11/23 02:20:06;;;;;;;71.05;30.50;;;;;;;2.77;100.00;99736.22;5013798;28;20028;-76
2022/11/23 02:22:40;;;;;;;;;;;;;;;2.78;100.00;99721.03;5015466;28;20761;-76
2022/11/23 02:25:14;;;;;;;73.80;32.27;;;;;;;2.85;100.00;99723.00;4997006;28;19920;-77
2022/11/23 02:27:41;;;;;;;60.85;30.02;;;;;;;2.87;100.00;99722.84;4996652;28;20025;-77
2022/11/23 02:30:07;;;;;;;70.20;30.70;;;;;;;2.89;100.00;99724.44;5014631;28;20026;-76
2022/11/23 02:32:33;;;;;;;65.50;29.70;;;;;;;2.79;100.00;99723.53;5013178;28;20032;-75
2022/11/23 02:34:58;;;;;;;76.68;31.98;;;;;;;2.78;100.00;99721.88;4993469;28;20033;-76
2022/11/23 02:37:24;;;;;;;73.90;30.75;;;;;;;2.86;100.00;99723.84;5014827;28;20040;-75
2022/11/23 02:39:51;;;;;;;69.65;30.40;;;;;;;3.01;100.00;99718.97;4996202;28;20434;-76
2022/11/23 02:42:17;;;;;;;71.22;31.23;;;;;;;2.85;100.00;99712.31;4992571;28;20470;-76
2022/11/23 02:44:54;;;;;;;69.68;32.83;;;;;;;2.78;100.00;99726.38;4991754;28;20109;-76
2022/11/23 02:47:20;;;;;;;71.28;32.05;;;;;;;2.82;100.00;99712.59;4994373;28;20101;-76
2022/11/23 02:49:46;;;;;;;78.25;33.60;;;;;;;3.08;100.00;99712.09;5009799;28;20117;-76
2022/11/23 02:52:12;;;;;;;69.38;30.52;;;;;;;2.96;100.00;99714.88;4988935;28;20040;-76
2022/11/23 02:54:37;;;;;;;67.80;31.38;;;;;;;3.09;100.00;99713.78;4994963;28;20112;-76
2022/11/23 02:57:04;;;;;;;72.25;32.35;;;;;;;2.88;100.00;99717.41;4989609;28;20025;-76
2022/11/23 02:59:31;;;;;;;72.50;32.80;;;;;;;3.01;100.00;99716.31;5012015;28;20029;-76
2022/11/23 03:01:57;;;;;;;75.25;31.50;;;;;;;2.92;100.00;99713.44;4993902;28;20107;-76
2022/11/23 03:04:23;;;;;;;79.10;34.42;;;;;;;3.03;100.00;99714.31;5000570;28;20084;-76
2022/11/23 03:06:48;;;;;;;71.40;31.40;;;;;;;3.05;100.00;99709.66;4995892;28;20029;-76
2022/11/23 03:09:14;;;;;;;76.65;33.55;;;;;;;3.09;100.00;99713.78;4993625;28;20478;-76
2022/11/23 03:11:39;;;;;;;78.72;36.20;;;;;;;2.99;100.00;99722.59;5003532;28;20521;-76
2022/11/23 03:14:04;;;;;;;89.28;37.42;;;;;;;2.98;100.00;99718.25;4993270;28;20037;-76
2022/11/23 03:16:30;;;;;;;91.50;35.95;;;;;;;3.04;100.00;99716.00;4997470;28;20087;-76
2022/11/23 03:18:55;;;;;;;85.88;33.97;;;;;;;3.19;100.00;99714.59;5012033;28;20140;-76
2022/11/23 03:21:21;;;;;;;83.22;36.95;;;;;;;2.95;100.00;99718.53;4989645;28;20072;-76
2022/11/23 03:23:46;;;;;;;79.75;36.90;;;;;;;3.01;100.00;99716.31;4988762;28;20040;-76
2022/11/23 03:26:12;;;;;;;75.30;36.20;;;;;;;2.99;100.00;99722.59;4999152;28;20030;-76
2022/11/23 03:28:37;;;;;;;85.78;36.53;;;;;;;3.03;100.00;99719.66;4993357;28;20470;-76
2022/11/23 03:31:02;;;;;;;84.38;35.38;;;;;;;2.94;100.00;99716.84;4994817;28;20546;-76
2022/11/23 03:33:28;;;;;;;79.18;35.55;;;;;;;3.05;100.00;99723.03;4992959;28;20056;-75
2022/11/23 03:35:53;;;;;;;79.22;35.35;;;;;;;3.10;100.00;99726.16;4994408;28;20141;-75
2022/11/23 03:38:19;;;;;;;76.90;35.15;;;;;;;3.01;100.00;99721.66;4993707;28;20068;-76
2022/11/23 03:40:45;;;;;;;88.13;36.55;;;;;;;3.09;100.00;99729.81;4993527;28;20045;-76
2022/11/23 03:43:11;;;;;;;84.20;36.65;;;;;;;2.91;100.00;99717.09;4993533;28;20050;-76
2022/11/23 03:45:36;;;;;;;85.95;37.78;;;;;;;2.86;100.00;99714.00;4999617;28;20060;-76
2022/11/23 03:48:02;;;;;;;75.13;32.70;;;;;;;2.93;100.00;99723.19;5001639;28;20045;-76
2022/11/23 03:50:28;;;;;;;89.05;38.55;;;;;;;2.81;100.00;99723.44;5006838;28;20026;-77
2022/11/23 03:52:54;;;;;;;81.50;36.50;;;;;;;2.92;100.00;99724.13;5004063;28;20051;-76
2022/11/23 03:55:20;;;;;;;84.03;34.55;;;;;;;2.91;100.00;99722.47;5000084;28;20033;-76
2022/11/23 03:57:47;;;;;;;81.72;36.33;;;;;;;3.08;100.00;99720.94;4998533;28;20025;-76
2022/11/23 04:00:13;;;;;;;85.75;37.85;;;;;;;2.93;100.00;99720.50;4994750;28;20080;-76
2022/11/23 04:02:40;;;;;;;79.78;35.72;;;;;;;3.07;100.00;99726.44;4998111;28;20050;-76
2022/11/23 04:05:06;;;;;;;82.53;35.45;;;;;;;2.90;100.00;99715.44;4998936;28;20060;-76
2022/11/23 04:07:32;;;;;;;73.38;33.28;;;;;;;2.99;100.00;99719.09;5022284;28;20465;-78
2022/11/23 04:09:57;;;;;;;79.93;36.65;;;;;;;2.92;100.00;99718.78;5000129;28;20037;-76
2022/11/23 04:12:23;;;;;;;74.07;34.60;;;;;;;3.03;100.00;99708.97;5018392;28;20021;-76
2022/11/23 04:14:48;;;;;;;73.28;33.92;;;;;;;2.96;100.00;99706.84;5004219;28;20033;-76
2022/11/23 04:17:14;;;;;;;80.60;36.95;;;;;;;2.99;100.00;99714.59;4998670;28;20021;-77
2022/11/23 04:19:39;;;;;;;75.40;33.88;;;;;;;2.93;100.00;99709.81;4998939;28;20037;-77
2022/11/23 04:22:04;;;;;;;81.85;34.65;;;;;;;3.04;100.00;99716.00;5012885;28;20030;-76
2022/11/23 04:24:29;;;;;;;72.90;33.80;;;;;;;3.02;100.00;99712.63;5001709;28;20056;-77
2022/11/23 04:26:55;;;;;;;62.70;31.55;;;;;;;3.11;100.00;99714.47;5019621;28;20030;-77
2022/11/23 04:29:20;;;;;;;70.68;32.15;;;;;;;3.22;100.00;99714.34;4998547;28;20308;-76
2022/11/23 04:31:45;;;;;;;73.05;31.27;;;;;;;3.20;100.00;99721.69;5002130;28;20029;-76
2022/11/23 04:34:11;;;;;;;64.32;28.85;;;;;;;3.24;100.00;99717.72;4995796;28;20042;-76
2022/11/23 04:36:36;;;;;;;67.97;30.50;;;;;;;3.22;100.00;99714.34;5000366;28;20033;-77
2022/11/23 04:39:03;;;;;;;68.63;31.33;;;;;;;3.27;100.00;99720.13;5001027;28;20035;-76
2022/11/23 04:41:28;;;;;;;69.07;28.52;;;;;;;3.31;100.00;99713.50;4998809;28;20024;-77
2022/11/23 04:43:54;;;;;;;62.47;27.92;;;;;;;3.37;100.00;99720.97;4999874;28;20034;-77
2022/11/23 04:46:19;;;;;;;53.33;26.75;;;;;;;3.37;100.00;99718.28;4999423;28;20025;-76
2022/11/23 04:48:45;;;;;;;56.65;28.23;;;;;;;3.28;100.00;99719.13;4998645;28;20029;-76
2022/11/23 04:51:10;;;;;;;51.55;24.27;;;;;;;3.37;100.00;99718.28;4996339;28;20030;-76
2022/11/23 04:53:43;;;;;;;62.25;26.58;;;;;;;3.46;100.00;99722.81;4999787;28;20025;-77
2022/11/23 04:56:09;;;;;;;57.53;25.75;;;;;;;3.47;100.00;99724.50;5001608;28;20034;-76
2022/11/23 04:58:35;;;;;;;61.47;26.75;;;;;;;3.40;100.00;99718.03;4996871;28;20037;-77
2022/11/23 05:01:02;;;;;;;56.50;26.85;;;;;;;3.40;100.00;99718.03;4998878;28;20033;-77
2022/11/23 05:03:30;;;;;;;54.30;26.00;;;;;;;3.31;100.00;99718.84;4995291;28;20026;-76
2022/11/23 05:05:58;;;;;;;51.90;25.83;;;;;;;3.42;100.00;99721.38;4998601;28;20038;-76
2022/11/23 05:08:24;;;;;;;49.35;22.88;;;;;;;3.53;100.00;99723.94;4997383;28;20032;-77
2022/11/23 05:10:49;;;;;;;64.15;27.00;;;;;;;3.49;100.00;99717.16;4994351;28;20129;-76
2022/11/23 05:13:16;;;;;;;48.40;25.13;;;;;;;3.45;100.00;99715.75;4999140;28;20125;-76
2022/11/23 05:15:46;;;;;;;55.35;24.77;;;;;;;3.42;100.00;99721.38;5000336;28;20502;-77
2022/11/23 05:18:11;;;;;;;53.35;25.02;;;;;;;3.42;100.00;99718.72;4997514;28;20116;-79
2022/11/23 05:20:37;;;;;;;50.58;24.48;;;;;;;3.43;100.00;99715.06;4996959;28;20581;-76
2022/11/23 05:23:03;;;;;;;48.38;22.65;;;;;;;3.50;100.00;99724.19;5018141;28;20041;-74
2022/11/23 05:25:29;;;;;;;46.95;22.17;;;;;;;3.38;100.00;99725.31;4992436;28;20025;-74
2022/11/23 05:27:54;;;;;;;50.70;24.27;;;;;;;3.45;100.00;99715.75;4997529;28;20091;-74
2022/11/23 05:30:20;;;;;;;46.65;23.50;;;;;;;3.41;100.00;99727.72;4996608;28;20065;-75
2022/11/23 05:32:45;;;;;;;51.85;24.50;;;;;;;3.52;100.00;99727.59;5004789;28;20040;-75
2022/11/23 05:35:11;;;;;;;67.43;26.08;;;;;;;3.52;100.00;99727.59;4996105;28;20045;-75
2022/11/23 05:37:37;;;;;;;60.35;26.25;;;;;;;3.47;100.00;99724.50;4995197;28;20473;-75
2022/11/23 05:40:04;;;;;;;61.97;29.30;;;;;;;3.53;100.00;99728.44;4994867;28;20033;-75
2022/11/23 05:42:29;;;;;;;75.65;27.35;;;;;;;3.65;100.00;99726.44;4998891;28;20025;-75
2022/11/23 05:44:54;;;;;;;65.40;27.90;;;;;;;3.66;100.00;99717.44;4996626;28;20034;-75
2022/11/23 05:47:20;;;;;;;69.88;31.60;;;;;;;3.54;100.00;99725.63;4995661;28;20125;-76
2022/11/23 05:49:45;;;;;;;80.05;32.25;;;;;;;3.50;100.00;99716.16;4993650;28;20037;-75
2022/11/23 05:52:10;;;;;;;72.55;29.83;;;;;;;3.46;100.00;99722.81;4991910;28;20033;-76
2022/11/23 05:54:36;;;;;;;71.80;29.60;;;;;;;3.46;100.00;99728.16;5006761;28;20037;-75
2022/11/23 05:57:01;;;;;;;87.53;34.17;;;;;;;3.49;100.00;99719.84;5009899;23;20063;-75
2022/11/23 05:59:27;;;;;;;96.93;35.00;;;;;;;3.54;100.00;99725.63;5010396;28;20041;-73
2022/11/23 06:01:52;;;;;;;70.28;30.60;;;;;;;3.48;100.00;99730.69;5011404;28;20040;-72
2022/11/23 06:04:18;;;;;;;81.90;34.90;;;;;;;3.50;100.00;99724.19;5012302;28;20025;-73
2022/11/23 06:06:44;;;;;;;65.38;29.42;;;;;;;3.54;100.00;99730.97;5013792;28;20021;-73
2022/11/23 06:09:10;;;;;;;80.35;34.28;;;;;;;3.42;100.00;99729.41;5013556;28;20087;-73
2022/11/23 06:11:36;;;;;;;75.35;32.92;;;;;;;3.51;100.00;99725.03;5012725;28;20018;-73
2022/11/23 06:14:01;;;;;;;71.40;30.67;;;;;;;3.40;100.00;99723.38;5013096;28;20092;-74
2022/11/23 06:16:26;;;;;;;78.30;29.90;;;;;;;3.41;100.00;99725.06;5012422;28;20060;-73
2022/11/23 06:18:52;;;;;;;83.22;32.08;;;;;;;3.34;100.00;99729.28;5012961;28;20025;-73
2022/11/23 06:21:20;;;;;;;81.10;30.90;;;;;;;3.34;100.00;99734.63;5011935;28;20021;-73
2022/11/23 06:23:46;;;;;;;69.88;31.73;;;;;;;3.33;100.00;99722.25;5010651;28;20092;-73
2022/11/23 06:26:12;;;;;;;74.60;30.38;;;;;;;3.43;100.00;99717.72;5012648;28;20068;-73
2022/11/23 06:28:37;;;;;;;77.35;31.10;;;;;;;3.34;100.00;99733.78;5011498;28;20029;-73
2022/11/23 06:31:05;;;;;;;75.88;33.45;;;;;;;3.36;100.00;99732.66;5011195;28;20033;-73
2022/11/23 06:33:31;;;;;;;72.43;31.80;;;;;;;3.41;100.00;99730.41;5030368;28;20061;-73
2022/11/23 06:35:59;;;;;;;75.15;31.13;;;;;;;3.47;100.00;99735.19;5028546;28;20100;-73
2022/11/23 06:38:25;;;;;;;82.05;30.65;;;;;;;3.60;100.00;99739.44;5012312;28;20040;-73
2022/11/23 06:40:50;;;;;;;80.35;31.95;;;;;;;3.53;100.00;99740.00;5013955;28;20025;-73
2022/11/23 06:43:16;;;;;;;79.13;32.17;;;;;;;3.44;100.00;99743.50;5011854;28;20025;-74
2022/11/23 06:45:41;;;;;;;71.15;30.55;;;;;;;3.54;100.00;99747.03;5012177;28;20025;-73
2022/11/23 06:48:07;;;;;;;78.05;31.50;;;;;;;3.45;100.00;99747.84;5011985;28;20025;-73
2022/11/23 06:50:32;;;;;;;68.15;30.77;;;;;;;3.52;100.00;99754.34;5011430;28;20092;-73
2022/11/23 06:52:58;;;;;;;71.28;31.40;;;;;;;3.46;100.00;99754.06;5011241;28;20533;-73
2022/11/23 06:55:24;;;;;;;72.68;30.50;;;;;;;3.60;100.00;99753.66;5010311;28;20092;-73
2022/11/23 06:57:49;;;;;;;72.82;30.17;;;;;;;3.50;100.00;99750.13;5028925;28;20061;-73
2022/11/23 07:00:15;;;;;;;66.00;25.55;;;;;;;3.63;100.00;99755.19;5011888;28;20036;-73
2022/11/23 07:02:41;;;;;;;62.20;27.63;;;;;;;3.62;100.00;99745.47;5010206;28;20083;-73
2022/11/23 07:05:07;;;;;;;73.05;28.92;;;;;;;3.62;100.00;99748.16;5028591;28;20109;-73
2022/11/23 07:07:32;;;;;;;70.07;30.20;;;;;;;3.66;100.00;99760.28;5028129;28;20072;-74
2022/11/23 07:09:58;;;;;;;60.58;27.48;;;;;;;3.71;100.00;99763.34;5009612;28;20417;-73
2022/11/23 07:12:23;;;;;;;70.32;28.88;;;;;;;3.70;100.00;99767.00;5007988;28;20018;-71
2022/11/23 07:14:48;;;;;;;56.53;25.73;;;;;;;3.71;100.00;99768.69;5012022;28;20024;-71
2022/11/23 07:17:17;;;;;;;67.82;28.58;;;;;;;3.80;100.00;99765.19;5033181;28;20032;-72
2022/11/23 07:19:42;;;;;;;62.88;25.58;;;;;;;3.87;100.00;99771.66;5026084;28;20026;-72
2022/11/23 07:22:08;;;;;;;63.90;27.00;;;;;;;3.89;100.00;99764.31;5006226;28;20040;-72
2022/11/23 07:24:33;;;;;;;64.32;27.92;;;;;;;3.87;100.00;99773.50;5006612;28;20041;-71
2022/11/23 07:26:58;;;;;;;54.67;26.13;;;;;;;3.78;100.00;99767.13;5027628;28;20029;-71
2022/11/23 07:29:24;;;;;;;75.63;28.77;;;;;;;3.83;100.00;99772.91;5030620;28;20035;-70
2022/11/23 07:31:49;;;;;;;63.45;26.35;;;;;;;3.92;100.00;99773.91;5012247;28;20052;-71
2022/11/23 07:34:14;;;;;;;52.40;24.58;;;;;;;3.94;100.00;99786.16;5011064;28;20039;-70
2022/11/23 07:36:40;;;;;;;65.25;25.30;;;;;;;3.99;100.00;99773.19;5023116;28;20026;-72
2022/11/23 07:39:06;;;;;;;59.45;27.05;;;;;;;3.88;100.00;99778.69;5030962;28;20124;-72
2022/11/23 07:41:31;;;;;;;56.97;23.40;;;;;;;3.97;100.00;99775.16;5010496;28;20051;-71
2022/11/23 07:43:56;;;;;;;51.20;24.20;;;;;;;4.11;100.00;99773.03;5030111;28;20033;-70
2022/11/23 07:46:22;;;;;;;57.88;23.67;;;;;;;4.05;100.00;99778.00;5015544;28;20100;-71
2022/11/23 07:48:47;;;;;;;48.30;22.92;;;;;;;4.14;100.00;99780.78;5030871;28;20029;-71
2022/11/23 07:51:13;;;;;;;59.20;23.88;;;;;;;4.15;100.00;99782.47;5012567;28;20029;-72
2022/11/23 07:53:39;;;;;;;43.42;22.30;;;;;;;4.21;100.00;99781.91;5025865;28;20432;-71
2022/11/23 07:56:04;;;;;;;50.78;22.50;;;;;;;4.22;100.00;99778.22;5006033;28;20045;-71
2022/11/23 07:58:31;;;;;;;42.10;21.77;;;;;;;4.23;100.00;99785.25;4996982;28;20049;-71
2022/11/23 08:00:57;;;;;;;52.53;22.60;;;;;;;4.38;100.00;99785.69;5013841;28;20084;-71
2022/11/23 08:03:22;;;;;;;46.83;20.58;;;;;;;4.37;100.00;99782.16;5010801;28;20026;-71
2022/11/23 08:05:48;;;;;;;53.55;20.98;;;;;;;4.40;100.00;99781.84;5004933;28;20061;-71
2022/11/23 08:08:13;;;;;;;40.67;20.10;;;;;;;4.48;100.00;99790.00;5026413;28;20113;-70
2022/11/23 08:10:39;;;;;;;50.72;19.83;;;;;;;4.43;100.00;99792.25;5008417;28;20060;-70
2022/11/23 08:13:05;;;;;;;46.40;20.67;;;;;;;4.46;100.00;99797.34;5014336;28;20133;-71
2022/11/23 08:15:30;;;;;;;40.47;19.50;;;;;;;4.46;100.00;99802.72;5012933;28;20112;-72
2022/11/23 08:18:01;;;;;;;48.97;20.60;;;;;;;4.47;100.00;99799.03;5029765;28;20478;-72
2022/11/23 08:20:28;;;;;;;43.40;20.60;;;;;;;4.45;100.00;99795.66;5012401;28;20029;-72
2022/11/23 08:22:54;;;;;;;42.53;19.60;;;;;;;4.55;100.00;99785.75;5029602;28;20021;-71
2022/11/23 08:25:27;;;;;;;41.50;20.35;;;;;;;4.48;100.00;99789.16;5024960;28;20033;-72
2022/11/23 08:27:54;;;;;;;55.10;18.77;;;;;;;4.56;100.00;99798.19;5028513;28;20052;-70
2022/11/23 08:30:20;;;;;;;46.28;19.50;;;;;;;4.53;100.00;99798.44;5011171;28;20025;-73
2022/11/23 08:32:45;;;;;;;49.20;19.25;;;;;;;4.56;100.00;99798.19;5011708;28;20112;-73
2022/11/23 08:35:10;;;;;;;42.50;18.52;;;;;;;4.57;100.00;99797.19;5007825;28;20097;-70
2022/11/23 08:37:36;;;;;;;39.45;18.60;;;;;;;4.68;100.00;99800.66;5008864;28;20037;-71
2022/11/23 08:40:01;;;;;;;42.40;16.77;;;;;;;4.76;100.00;99792.72;5010953;28;20037;-70
2022/11/23 08:42:26;;;;;;;45.70;17.83;;;;;;;4.76;100.00;99788.22;5007763;28;20033;-72
2022/11/23 08:44:52;;;;;;;45.80;16.00;;;;;;;4.99;100.00;99796.72;5028043;28;20060;-70
2022/11/23 08:47:18;;;;;;;36.55;16.20;;;;;;;4.85;100.00;99798.06;5012097;28;20545;-71
2022/11/23 08:49:43;;;;;;;39.08;15.43;;;;;;;4.82;100.00;99800.16;5028301;28;20029;-71
2022/11/23 08:52:09;;;;;;;41.22;16.80;;;;;;;4.82;100.00;99797.47;5029350;28;20492;-71
2022/11/23 08:54:34;;;;;;;35.28;16.58;;;;;;;5.00;100.00;99801.06;5010469;28;20033;-72
2022/11/23 08:56:59;;;;;;;38.60;17.58;;;;;;;5.06;100.00;99800.47;5029141;28;20032;-70
2022/11/23 08:59:25;;;;;;;38.05;17.02;;;;;;;5.12;100.00;99799.88;5028842;28;20048;-72
2022/11/23 09:01:50;;;;;;;37.60;15.70;;;;;;;5.15;100.00;99804.97;5029342;28;20076;-71
2022/11/23 09:04:15;;;;;;;44.25;15.00;;;;;;;5.22;100.00;99804.38;5011135;28;20025;-72
2022/11/23 09:06:41;;;;;;;33.50;14.35;;;;;;;5.22;100.00;99807.06;5010463;28;20037;-72
2022/11/23 09:09:06;;;;;;;29.23;14.38;;;;;;;5.27;100.00;99802.06;5011281;28;20064;-72
2022/11/23 09:11:31;;;;;;;25.83;13.55;;;;;;;5.46;100.00;99801.94;5010548;28;20137;-71
2022/11/23 09:13:57;;;;;;;37.53;13.70;;;;;;;5.34;100.00;99797.78;5011330;28;20474;-69
2022/11/23 09:16:22;;;;;;;28.73;13.40;;;;;;;5.53;100.00;99807.53;5010323;28;20029;-70
2022/11/23 09:18:48;;;;;;;35.00;14.10;;;;;;;5.53;100.00;99803.00;5010726;28;20033;-70
2022/11/23 09:21:14;;;;;;;33.08;14.10;;;;;;;5.68;100.00;99796.13;5011016;28;20036;-71
2022/11/23 09:23:40;;;;;;;26.58;12.52;;;;;;;5.59;100.00;99802.41;5010646;28;20021;-71
2022/11/23 09:26:05;;;;;;;32.45;13.52;;;;;;;5.65;100.00;99806.31;5016018;28;20024;-72
2022/11/23 09:28:31;;;;;;;32.60;13.32;;;;;;;5.64;100.00;99805.47;5010652;28;20025;-71
2022/11/23 09:30:56;;;;;;;27.40;13.07;;;;;;;5.65;100.00;99807.16;5011297;28;20026;-71
2022/11/23 09:33:23;;;;;;;32.03;14.27;;;;;;;5.62;100.00;99818.22;5004303;28;20442;-71
2022/11/23 09:35:58;;;;;;;33.33;14.85;;;;;;;5.80;100.00;99814.69;5020492;28;20095;-71
2022/11/23 09:38:24;;;;;;;29.83;12.57;;;;;;;5.75;100.00;99811.63;5000006;28;20392;-70
2022/11/23 09:41:00;;;;;;;33.45;12.50;;;;;;;5.87;100.00;99823.84;5010886;28;20021;-71
2022/11/23 09:43:37;;;;;;;34.65;11.95;;;;;;;6.03;100.00;99826.69;5010354;28;20057;-72
2022/11/23 09:46:19;;;;;;;35.85;13.07;;;;;;;6.17;100.00;99820.75;5010391;28;20128;-71
2022/11/23 09:48:50;;;;;;;19.98;10.38;;;;;;;6.20;100.00;99823.16;5035745;28;20017;-71
2022/11/23 09:51:21;;;;;;;26.70;10.32;;;;;;;6.56;100.00;99833.81;5047986;28;20039;-71
2022/11/23 09:53:55;;;;;;;22.67;10.52;;;;;;;6.58;100.00;99821.03;5030172;28;20025;-70
2022/11/23 09:56:28;;;;;;;24.33;10.25;;;;;;;6.52;100.00;99821.72;5035773;28;20033;-70
2022/11/23 09:58:58;;;;;;;22.80;9.57;;;;;;;6.43;100.00;99818.09;5011174;28;20490;-71
2022/11/23 10:01:24;;;;;;;26.80;10.32;;;;;;;6.48;100.00;99821.16;5010104;28;20192;-71
2022/11/23 10:03:49;;;;;;;22.30;9.63;;;;;;;6.46;100.00;99833.09;5028249;28;20134;-71
2022/11/23 10:06:26;;;;;;;21.42;10.88;;;;;;;6.48;100.00;99836.47;5017531;28;20017;-71
2022/11/23 10:09:09;;;;;;;24.88;10.00;;;;;;;6.51;100.00;99825.38;5009885;28;20068;-72
2022/11/23 10:12:00;;;;;;;33.00;9.65;;;;;;;6.67;100.00;99828.19;5010742;28;20017;-73
2022/11/23 10:14:52;;;;;;;21.88;7.75;;;;;;;6.78;100.00;99827.91;5010423;28;20065;-72
2022/11/23 10:17:30;;;;;;;27.92;8.98;;;;;;;7.02;100.00;99829.03;5010188;28;20041;-72
2022/11/23 10:20:20;;;;;;;22.65;10.07;;;;;;;7.02;100.00;99834.41;5009867;28;20466;-72
2022/11/23 10:23:00;;;;;;;19.02;7.28;;;;;;;7.13;100.00;99836.81;5011217;28;20029;-73
2022/11/23 10:25:32;;;;;;;24.40;8.80;;;;;;;7.24;100.00;99833.84;5011082;28;20026;-73
2022/11/23 10:28:01;;;;;;;20.10;7.45;;;;;;;7.15;100.00;99829.44;5010336;28;20055;-73
2022/11/23 10:30:27;;;;;;;22.23;8.00;;;;;;;7.12;100.00;99824.38;5027086;28;20048;-72
2022/11/23 10:32:59;;;;;;;24.85;8.35;;;;;;;7.17;100.00;99826.56;5028330;28;20033;-73
2022/11/23 10:35:32;;;;;;;23.67;8.05;;;;;;;7.28;100.00;99832.50;5010807;28;20136;-72
2022/11/23 10:38:18;;;;;;;26.65;8.40;;;;;;;7.02;100.00;99827.19;5009894;28;20033;-72
2022/11/23 10:41:11;;;;;;;18.67;7.63;;;;;;;7.16;100.00;99825.72;5010742;28;20034;-72
2022/11/23 10:44:08;;;;;;;21.50;7.85;;;;;;;7.50;100.00;99827.56;5009977;28;20052;-72
2022/11/23 10:46:34;;;;;;;17.25;6.53;;;;;;;7.75;100.00;99821.19;5010733;28;20072;-72
2022/11/23 10:49:16;;;;;;;28.98;8.55;;;;;;;7.44;100.00;99822.81;5026387;28;20073;-73
2022/11/23 10:51:54;;;;;;;22.90;7.82;;;;;;;7.44;100.00;99822.81;5026027;28;20061;-73
2022/11/23 10:54:28;;;;;;;18.65;6.68;;;;;;;7.60;100.00;99829.06;5009490;28;20112;-73
2022/11/23 10:56:55;;;;;;;29.23;7.90;;;;;;;7.43;100.00;99831.88;5009712;28;20029;-72
2022/11/23 10:59:33;;;;;;;26.38;8.27;;;;;;;7.35;100.00;99830.84;5010478;28;20033;-73
2022/11/23 11:02:21;;;;;;;21.65;8.48;;;;;;;7.17;100.00;99832.81;5010814;28;20021;-74
2022/11/23 11:04:49;;;;;;;24.17;7.90;;;;;;;7.35;100.00;99836.22;5010149;28;20124;-73
2022/11/23 11:07:19;;;;;;;24.65;8.68;;;;;;;7.35;100.00;99841.63;5012241;28;20481;-74
2022/11/23 11:09:55;;;;;;;17.75;8.35;;;;;;;7.30;100.00;99838.59;5010006;28;20136;-74
2022/11/23 11:12:20;;;;;;;26.45;8.88;;;;;;;7.03;100.00;99836.94;5008971;28;20476;-73
2022/11/23 11:15:04;;;;;;;22.88;8.02;;;;;;;7.26;100.00;99837.22;5026705;28;20066;-71
2022/11/23 11:17:32;;;;;;;20.15;9.00;;;;;;;7.22;100.00;99833.16;5008906;28;20108;-72